• Join FlightAware (Why Join?)
  • Login
  • US Flag 
06:22AM EDT


 

Airport Tracker/Info


-or-


 

Live Flight TrackerFlight Track Log ✈ N96928 ✈ 08-May-2013 ✈ KFRG - KSWF

Flight Track Log - Related Links

Times and Time Zones

All times are in EDT time to prevent confusion due to time zone crossing. See the N96928 flight status page for this flight to view local times or setup timezone preferences in your user account.

Time Position Orientation Groundspeed Altitude Reporting Facility
EDT Latitude Longitude Course Direction KTS MPH feet Rate Location/Type
08:45PM 40.7167 -73.4333 270° West 70 81 1,300  Level New York TRACON
08:46PM 40.7167 -73.4500 270° West 90 104 1,900 600 Climbing New York TRACON
08:47PM 40.7167 -73.4833 270° West 90 104 2,500 480 Climbing New York TRACON
08:47PM 40.7333 -73.5167 303° West 108 124 2,900 480 Climbing New York TRACON
08:49PM 40.7667 -73.5000 21° North 109 125 3,500 600 Climbing New York TRACON
08:49PM 40.7833 -73.4833 37° Northeast 104 120 4,100 600 Climbing New York TRACON
08:50PM 40.8167 -73.4667 21° North 103 119 4,700 600 Climbing New York TRACON
08:51PM 40.8333 -73.4333 57° Northeast 107 123 5,300 540 Climbing New York TRACON
08:52PM 40.8667 -73.4167 21° North 113 130 5,800 540 Climbing New York TRACON
08:53PM 40.8833 -73.3833 57° Northeast 112 129 6,400 540 Climbing New York TRACON
08:54PM 40.9167 -73.3667 21° North 117 135 6,900 240 Climbing New York TRACON
08:55PM 40.9500 -73.3333 37° Northeast 147 169 6,900  Level New York TRACON
08:57PM 40.9833 -73.3000 37° Northeast 156 180 6,900  Level New York TRACON
08:57PM 41.0167 -73.3000 360° North 161 185 6,900  Level New York TRACON
08:58PM 41.0667 -73.3000 360° North 157 181 6,900  Level New York TRACON
09:00PM 41.1167 -73.3000 360° North 154 177 6,900  Level New York TRACON
09:00PM 41.1500 -73.3000 360° North 155 178 6,900  Level New York TRACON
09:01PM 41.2000 -73.3000 360° North 158 182 6,900  Level New York TRACON
09:02PM 41.2406 -73.2986 North 170 196 6,900  Level Boston Center
09:03PM 41.2800 -73.2992 359° North 160 184 6,900  Level Boston Center
09:04PM 41.3239 -73.2969 North 155 178 6,900  Level Boston Center
09:05PM 41.3633 -73.2947 North 162 186 6,900  Level Boston Center
09:06PM 41.4114 -73.2869 North 157 181 6,900  Level Boston Center
09:07PM 41.4511 -73.2875 359° North 157 181 6,900  Level Boston Center
09:08PM 41.5011 -73.2828 North 157 181 7,000  Climbing Boston Center
09:09PM 41.5428 -73.2806 North 162 186 6,900 -60 Descending Boston Center
09:10PM 41.5883 -73.3061 337° Northwest 162 186 6,900 -480 Level Boston Center
09:13PM 41.7000 -73.3667 338° Northwest 179 206 5,400 -660 Descending New York TRACON
09:14PM 41.7500 -73.3833 346° North 174 200 4,700 -660 Descending New York TRACON
09:15PM 41.7500 -73.4333 270° West 140 161 4,200 -480 Descending New York TRACON
09:16PM 41.7500 -73.4833 270° West 132 152 3,900 -180 Descending New York TRACON
09:17PM 41.7500 -73.5167 270° West 122 140 3,900  Level New York TRACON
09:18PM 41.7500 -73.5667 270° West 121 139 3,900  Level New York TRACON
09:19PM 41.7500 -73.6167 270° West 122 140 3,900  Level New York TRACON
09:20PM 41.7500 -73.6500 270° West 121 139 3,900  Level New York TRACON
09:21PM 41.7500 -73.7000 270° West 114 131 3,900  Level New York TRACON
09:22PM 41.7500 -73.7500 270° West 112 129 3,900  Level New York TRACON
09:23PM 41.7500 -73.7833 270° West 117 135 3,900  Level New York TRACON
09:24PM 41.7333 -73.8333 246° West 118 136 3,900  Level New York TRACON
09:25PM 41.7333 -73.8667 270° West 115 132 3,900  Level New York TRACON
09:26PM 41.7167 -73.9167 246° West 114 131 3,900  Level New York TRACON
09:27PM 41.7167 -73.9500 270° West 113 130 3,900  Level New York TRACON
09:28PM 41.7000 -73.9833 236° Southwest 120 138 3,900  Level New York TRACON
09:29PM 41.7000 -74.0333 270° West 113 130 3,900  Level New York TRACON
09:30PM 41.6833 -74.0667 236° Southwest 113 130 3,900  Level New York TRACON
09:31PM 41.6833 -74.1167 270° West 122 140 3,900  Level New York TRACON
09:32PM 41.6667 -74.1500 236° Southwest 114 131 4,000  Climbing New York TRACON
09:33PM 41.6667 -74.2000 270° West 118 136 4,000 -60 Level New York TRACON
09:34PM 41.6500 -74.2333 236° Southwest 109 125 3,900 -60 Descending New York TRACON
09:35PM 41.6333 -74.2667 236° Southwest 113 130 3,900  Level New York TRACON
09:36PM 41.6000 -74.3000 217° Southwest 112 129 3,900  Level New York TRACON
09:37PM 41.5833 -74.3333 236° Southwest 117 135 3,900  Level New York TRACON
09:38PM 41.5667 -74.3667 236° Southwest 106 122 3,900  Level New York TRACON
09:39PM 41.5500 -74.3833 217° Southwest 104 120 3,900 -120 Level New York TRACON
09:40PM 41.5167 -74.3833 180° South 106 122 3,700 -420 Descending New York TRACON
09:41PM 41.4833 -74.3667 159° South 120 138 3,100 -420 Descending New York TRACON
09:42PM 41.4667 -74.3333 124° Southeast 116 133 2,900 -120 Descending New York TRACON
09:43PM 41.4833 -74.3000 56° Northeast 125 144 2,900 -300 Level New York TRACON
09:44PM 41.4833 -74.2500 90° East 124 143 2,400 -660 Descending New York TRACON
09:45PM 41.4833 -74.2000 90° East 119 137 1,700 -600 Descending New York TRACON
09:46PM 41.5000 -74.1667 56° Northeast 90 104 1,200 -540 Descending New York TRACON
09:47PM 41.5000 -74.1333 90° East 98 113 700 -300 Descending New York TRACON
09:48PM 41.5000 -74.1000 90° East 92 106 600 -120 Descending New York TRACON